Time;durP1;ratioP1;P1;durP2;ratioP2;P2;SDS_P1;SDS_P2;PMS_P1;PMS_P2;Temp;Humidity;BMP_temperature;BMP_pressure;BME280_temperature;BME280_humidity;BME280_pressure;Samples;Min_cycle;Max_cycle;Signal;HPM_P1;HPM_P2
2021/07/07 00:00:51;;;;;;;;;;;26.00;99.50;;;;;;1918371;73;20228;-91
2021/07/07 00:03:20;;;;;;;;;;;26.00;99.50;;;;;;1930916;72;20167;-90
2021/07/07 00:05:50;;;;;;;;;;;26.00;99.60;;;;;;1928871;73;20185;-85
2021/07/07 00:08:20;;;;;;;;;;;26.00;99.60;;;;;;1925426;73;20229;-90
2021/07/07 00:10:49;;;;;;;;;;;26.00;99.50;;;;;;1917664;73;20190;-89
2021/07/07 00:13:21;;;;;;;;;;;26.00;99.40;;;;;;1930577;73;20215;-89
2021/07/07 00:15:51;;;;;;;;;;;26.00;99.40;;;;;;1920219;73;20460;-89
2021/07/07 00:18:39;;;;;;;;;;;26.00;99.40;;;;;;1915223;73;20151;-86
2021/07/07 00:21:09;;;;;;;;;;;26.00;99.40;;;;;;1863948;75;20133;-89
2021/07/07 00:23:39;;;;;;;;;;;26.00;99.40;;;;;;1893067;74;20736;-93
2021/07/07 00:26:10;;;;;;;;;;;26.00;99.20;;;;;;1899459;74;20224;-88
2021/07/07 00:31:32;;;;;;;;;;;;;;;;;;;;;
2021/07/07 00:39:38;;;;;;;;;;;26.20;98.90;;;;;;1835133;74;20266;-89
2021/07/07 00:44:51;;;;;;;;;;;26.40;98.90;;;;;;1873847;74;20260;-91
2021/07/07 00:50:00;;;;;;;;;;;26.50;98.20;;;;;;1873244;73;20189;-86
2021/07/07 00:55:22;;;;;;;;;;;26.50;98.20;;;;;;1875962;74;20129;-90
2021/07/07 00:57:52;;;;;;;;;;;26.70;97.70;;;;;;1907552;74;20237;-90
2021/07/07 01:00:24;;;;;;;;;;;26.80;97.70;;;;;;1905749;74;20193;-90
2021/07/07 01:02:58;;;;;;;;;;;26.90;97.50;;;;;;1875755;75;20187;-91
2021/07/07 01:05:30;;;;;;;;;;;27.10;97.10;;;;;;1863912;74;20486;-90
2021/07/07 01:08:02;;;;;;;;;;;27.10;96.50;;;;;;1866478;75;20243;-89
2021/07/07 01:10:35;;;;;;;;;;;27.10;96.60;;;;;;1877790;73;20208;-79
2021/07/07 01:13:05;;;;;;;;;;;27.20;96.60;;;;;;1933649;72;20177;-81
2021/07/07 01:15:36;;;;;;;;;;;27.30;96.30;;;;;;1948390;72;20205;-81
2021/07/07 01:18:07;;;;;;;;;;;27.40;95.90;;;;;;1937579;72;20112;-83
2021/07/07 01:20:37;;;;;;;;;;;27.50;95.60;;;;;;1913291;73;20710;-83
2021/07/07 01:23:07;;;;;;;;;;;27.50;95.60;;;;;;1934591;71;20223;-83
2021/07/07 01:25:38;;;;;;;;;;;27.60;95.70;;;;;;1893780;73;20458;-83
2021/07/07 01:28:08;;;;;;;;;;;27.70;95.40;;;;;;1918648;72;20257;-83
2021/07/07 01:30:37;;;;;;;;;;;27.90;95.20;;;;;;1924548;72;20217;-81
2021/07/07 01:33:07;;;;;;;;;;;28.00;94.80;;;;;;1914864;72;20187;-82
2021/07/07 01:35:37;;;;;;;;;;;28.10;94.10;;;;;;1930950;72;20274;-80
2021/07/07 01:38:07;;;;;;;;;;;28.20;93.80;;;;;;1928927;72;20140;-81
2021/07/07 01:40:36;;;;;;;;;;;28.30;94.00;;;;;;1946557;72;20157;-79
2021/07/07 01:43:06;;;;;;;;;;;28.40;93.40;;;;;;1947644;73;20249;-80
2021/07/07 01:45:36;;;;;;;;;;;28.50;93.30;;;;;;1915702;72;20175;-82
2021/07/07 01:48:05;;;;;;;;;;;28.60;93.00;;;;;;1889063;74;20212;-81
2021/07/07 01:50:48;;;;;;;;;;;28.70;93.30;;;;;;1890971;74;20300;-81
2021/07/07 01:53:16;;;;;;;;;;;28.70;92.70;;;;;;1875205;72;20184;-82
2021/07/07 01:55:49;;;;;;;;;;;28.90;92.70;;;;;;1891592;73;20195;-80
2021/07/07 01:58:17;;;;;;;;;;;29.00;92.70;;;;;;1922924;72;20250;-80
2021/07/07 02:00:49;;;;;;;;;;;29.10;92.00;;;;;;1917022;72;20177;-80
2021/07/07 02:03:20;;;;;;;;;;;29.20;91.80;;;;;;1940434;73;20268;-84
2021/07/07 02:09:20;;;;;;;;;;;29.40;91.60;;;;;;1910418;72;20382;-79
2021/07/07 02:17:41;;;;;;;;;;;29.60;91.00;;;;;;1934060;73;20211;-81
2021/07/07 02:20:23;;;;;;;;;;;29.70;91.30;;;;;;1899919;75;20197;-81
2021/07/07 02:23:02;;;;;;;;;;;29.80;91.10;;;;;;1895785;75;20507;-80
2021/07/07 02:25:32;;;;;;;;;;;29.90;90.50;;;;;;1896876;75;20163;-78
2021/07/07 02:28:44;;;;;;;;;;;30.00;88.80;;;;;;1739594;81;20226;-81
2021/07/07 02:34:13;;;;;;;;;;;;;;;;;;;;;
2021/07/07 02:37:01;;;;;;;;;;;;;;;;;;;;;
2021/07/07 02:39:29;;;;;;;;;;;30.50;86.80;;;;;;1829916;77;20265;-81
2021/07/07 02:42:23;;;;;;;;;;;30.60;86.20;;;;;;1792817;78;20194;-79
2021/07/07 02:44:56;;;;;;;;;;;30.70;86.00;;;;;;1830737;77;20183;-80
2021/07/07 02:47:53;;;;;;;;;;;30.80;85.30;;;;;;1829484;77;20310;-80
2021/07/07 02:54:04;;;;;;;;;;;31.00;86.20;;;;;;1591519;83;20260;-81
2021/07/07 02:56:31;;;;;;;;;;;;;;;;;;;;;
2021/07/07 03:11:15;;;;;;;;;;;31.50;82.30;;;;;;1517481;91;20296;-79
2021/07/07 03:25:09;;;;;;;;;;;31.50;82.40;;;;;;1935135;73;20473;-81
2021/07/07 03:27:41;;;;;;;;;;;31.60;82.30;;;;;;1919089;74;20248;-82
2021/07/07 03:30:12;;;;;;;;;;;31.60;82.70;;;;;;1913724;74;20493;-82
2021/07/07 03:32:45;;;;;;;;;;;31.60;82.70;;;;;;1917388;74;20481;-80
2021/07/07 03:35:15;;;;;;;;;;;31.60;82.90;;;;;;1917476;74;20172;-80
2021/07/07 03:37:48;;;;;;;;;;;31.70;83.20;;;;;;1916283;74;20224;-80
2021/07/07 03:40:25;;;;;;;;;;;31.70;82.60;;;;;;1916241;74;20173;-81
2021/07/07 03:43:12;;;;;;;;;;;31.70;82.40;;;;;;1919462;74;20160;-82
2021/07/07 03:45:50;;;;;;;;;;;31.60;83.20;;;;;;1836737;77;20162;-81
2021/07/07 03:48:20;;;;;;;;;;;31.70;83.30;;;;;;1844573;76;20226;-82
2021/07/07 03:51:08;;;;;;;;;;;31.60;83.10;;;;;;1811870;77;20240;-81
2021/07/07 03:53:37;;;;;;;;;;;31.60;82.80;;;;;;1849890;76;20268;-83
2021/07/07 03:56:10;;;;;;;;;;;31.60;82.00;;;;;;1841347;77;20229;-80
2021/07/07 03:58:42;;;;;;;;;;;31.70;82.10;;;;;;1822467;77;20169;-78
2021/07/07 04:01:15;;;;;;;;;;;31.70;81.30;;;;;;1836648;77;20161;-80
2021/07/07 04:03:57;;;;;;;;;;;31.60;81.30;;;;;;1835988;77;20424;-80
2021/07/07 04:06:58;;;;;;;;;;;31.60;82.30;;;;;;1839193;77;20182;-81
2021/07/07 04:09:29;;;;;;;;;;;31.60;83.10;;;;;;1837756;77;20222;-80
2021/07/07 04:11:59;;;;;;;;;;;31.60;81.40;;;;;;1842029;77;20267;-81
2021/07/07 04:14:35;;;;;;;;;;;31.70;81.50;;;;;;1907798;75;20220;-81
2021/07/07 04:17:06;;;;;;;;;;;31.70;81.10;;;;;;1911167;74;20218;-79
2021/07/07 04:19:37;;;;;;;;;;;31.80;82.00;;;;;;1911012;74;20154;-80
2021/07/07 04:22:10;;;;;;;;;;;31.80;82.00;;;;;;1904723;74;20158;-82
2021/07/07 04:24:40;;;;;;;;;;;31.80;81.40;;;;;;1873514;75;20126;-82
2021/07/07 04:27:10;;;;;;;;;;;31.80;81.40;;;;;;1847202;76;20185;-81
2021/07/07 04:29:40;;;;;;;;;;;31.80;81.60;;;;;;1843610;76;20162;-81
2021/07/07 04:32:11;;;;;;;;;;;31.80;82.20;;;;;;1877151;75;20228;-82
2021/07/07 04:34:45;;;;;;;;;;;31.70;82.00;;;;;;1845171;76;20212;-80
2021/07/07 04:37:21;;;;;;;;;;;31.70;81.50;;;;;;1899331;75;20520;-82
2021/07/07 04:39:56;;;;;;;;;;;31.80;81.70;;;;;;1891025;75;20219;-80
2021/07/07 04:42:29;;;;;;;;;;;31.90;80.80;;;;;;1875032;76;20210;-79
2021/07/07 04:45:00;;;;;;;;;;;32.00;80.00;;;;;;1848255;77;20236;-79
2021/07/07 04:47:44;;;;;;;;;;;32.00;80.30;;;;;;1814653;76;20239;-81
2021/07/07 04:50:17;;;;;;;;;;;31.90;80.60;;;;;;1877385;75;20207;-81
2021/07/07 04:52:45;;;;;;;;;;;31.80;81.10;;;;;;1864030;74;20489;-81
2021/07/07 04:55:16;;;;;;;;;;;31.80;81.50;;;;;;1913181;74;20232;-81
2021/07/07 04:57:47;;;;;;;;;;;31.80;81.80;;;;;;1876479;74;20153;-81
2021/07/07 05:00:18;;;;;;;;;;;31.90;81.40;;;;;;1920358;73;20165;-81
2021/07/07 05:02:51;;;;;;;;;;;32.10;81.20;;;;;;1907547;75;20217;-80
2021/07/07 05:05:22;;;;;;;;;;;32.20;81.70;;;;;;1896475;74;20468;-80
2021/07/07 05:07:52;;;;;;;;;;;32.20;81.50;;;;;;1930520;73;20226;-81
2021/07/07 05:10:22;;;;;;;;;;;32.20;81.50;;;;;;1905393;73;20158;-81
2021/07/07 05:12:57;;;;;;;;;;;32.10;80.60;;;;;;1909315;73;20464;-81
2021/07/07 05:15:28;;;;;;;;;;;32.10;81.40;;;;;;1892728;76;20199;-80
2021/07/07 05:17:58;;;;;;;;;;;32.10;81.80;;;;;;1900799;74;20181;-79
2021/07/07 05:20:30;;;;;;;;;;;32.10;81.80;;;;;;1899780;75;20427;-81
2021/07/07 05:23:06;;;;;;;;;;;32.20;82.20;;;;;;1777977;78;20169;-80
2021/07/07 05:25:32;;;;;;;;;;;32.20;82.20;;;;;;1829636;77;20204;-80
2021/07/07 05:28:02;;;;;;;;;;;32.20;82.70;;;;;;1897180;74;20272;-84
2021/07/07 05:30:32;;;;;;;;;;;32.40;82.20;;;;;;1919123;75;20181;-83
2021/07/07 05:33:02;;;;;;;;;;;32.40;81.90;;;;;;1922506;75;20185;-82
2021/07/07 05:35:32;;;;;;;;;;;32.40;81.40;;;;;;1923624;74;20203;-82
2021/07/07 05:38:01;;;;;;;;;;;32.40;81.80;;;;;;1920064;74;20484;-83
2021/07/07 05:40:31;;;;;;;;;;;32.40;81.00;;;;;;1903981;73;20166;-82
2021/07/07 05:43:02;;;;;;;;;;;32.40;80.80;;;;;;1925008;74;20132;-83
2021/07/07 05:45:32;;;;;;;;;;;32.40;81.80;;;;;;1928685;74;20613;-83
2021/07/07 05:48:05;;;;;;;;;;;32.30;81.90;;;;;;1921048;74;20215;-83
2021/07/07 05:50:35;;;;;;;;;;;32.20;82.00;;;;;;1904695;74;20242;-81
2021/07/07 05:53:05;;;;;;;;;;;32.20;82.20;;;;;;1908800;74;20614;-81
2021/07/07 05:55:34;;;;;;;;;;;32.20;81.80;;;;;;1897682;75;20120;-82
2021/07/07 05:58:04;;;;;;;;;;;32.20;82.40;;;;;;1914404;74;20126;-81
2021/07/07 06:00:34;;;;;;;;;;;32.10;81.90;;;;;;1917033;74;20136;-80
2021/07/07 06:03:11;;;;;;;;;;;32.10;82.20;;;;;;1906358;73;20222;-79
2021/07/07 06:05:40;;;;;;;;;;;32.10;82.30;;;;;;1927758;74;20170;-82
2021/07/07 06:08:10;;;;;;;;;;;32.00;82.70;;;;;;1926023;74;20168;-83
2021/07/07 06:10:42;;;;;;;;;;;32.00;82.60;;;;;;1926616;74;20201;-82
2021/07/07 06:13:11;;;;;;;;;;;32.00;82.40;;;;;;1926551;74;20236;-79
2021/07/07 06:15:46;;;;;;;;;;;32.00;82.70;;;;;;1904698;71;20208;-80
2021/07/07 06:18:16;;;;;;;;;;;31.90;82.90;;;;;;1866059;77;20188;-79
2021/07/07 06:20:46;;;;;;;;;;;31.90;82.50;;;;;;1849923;77;20161;-80
2021/07/07 06:23:16;;;;;;;;;;;31.90;83.40;;;;;;1861115;77;20133;-79
2021/07/07 06:25:46;;;;;;;;;;;31.80;84.50;;;;;;1860836;76;20219;-80
2021/07/07 06:28:16;;;;;;;;;;;31.70;84.70;;;;;;1869824;76;20204;-80
2021/07/07 06:30:46;;;;;;;;;;;31.60;84.30;;;;;;1853421;76;20192;-79
2021/07/07 06:33:15;;;;;;;;;;;31.40;84.50;;;;;;1881710;75;20135;-80
2021/07/07 06:35:45;;;;;;;;;;;31.20;86.60;;;;;;1867553;77;20210;-79
2021/07/07 06:38:14;;;;;;;;;;;30.90;88.70;;;;;;1866898;77;20192;-79
2021/07/07 06:40:44;;;;;;;;;;;30.70;90.20;;;;;;1865654;76;20164;-79
2021/07/07 06:43:14;;;;;;;;;;;30.50;90.00;;;;;;1866524;77;20275;-79
2021/07/07 06:45:43;;;;;;;;;;;30.40;87.90;;;;;;1863236;77;20445;-79
2021/07/07 06:48:13;;;;;;;;;;;30.30;88.00;;;;;;1875539;76;20224;-79
2021/07/07 06:50:43;;;;;;;;;;;30.20;87.00;;;;;;1882654;76;20118;-79
2021/07/07 06:53:12;;;;;;;;;;;30.20;84.00;;;;;;1882125;76;20283;-78
2021/07/07 06:55:42;;;;;;;;;;;30.10;84.50;;;;;;1865189;77;20211;-78
2021/07/07 06:58:12;;;;;;;;;;;30.10;85.10;;;;;;1864954;77;20279;-78
2021/07/07 07:00:42;;;;;;;;;;;30.30;87.30;;;;;;1867379;77;20778;-79
2021/07/07 07:03:12;;;;;;;;;;;30.30;87.10;;;;;;1860520;77;20200;-79
2021/07/07 07:05:42;;;;;;;;;;;30.20;85.40;;;;;;1861533;77;20470;-79
2021/07/07 07:08:13;;;;;;;;;;;30.10;85.90;;;;;;1867812;76;20133;-79
2021/07/07 07:10:43;;;;;;;;;;;30.00;83.70;;;;;;1849167;77;20258;-78
2021/07/07 07:13:13;;;;;;;;;;;29.90;83.60;;;;;;1881826;76;20211;-77
2021/07/07 07:15:47;;;;;;;;;;;29.80;84.30;;;;;;1858674;76;20211;-78
2021/07/07 07:18:16;;;;;;;;;;;29.80;83.80;;;;;;1862851;75;20201;-78
2021/07/07 07:20:45;;;;;;;;;;;29.80;84.10;;;;;;1886575;76;20271;-78
2021/07/07 07:23:15;;;;;;;;;;;29.80;81.50;;;;;;1890172;74;20399;-76
2021/07/07 07:25:45;;;;;;;;;;;29.90;81.30;;;;;;1872631;77;20266;-78
2021/07/07 07:28:15;;;;;;;;;;;30.00;80.90;;;;;;1860874;77;20250;-79
2021/07/07 07:30:45;;;;;;;;;;;30.20;80.70;;;;;;1857079;77;20241;-79
2021/07/07 07:33:15;;;;;;;;;;;30.30;80.30;;;;;;1883990;74;20724;-77
2021/07/07 07:35:46;;;;;;;;;;;30.30;80.70;;;;;;1844984;77;20564;-79
2021/07/07 07:38:19;;;;;;;;;;;30.40;80.00;;;;;;1876411;76;20241;-77
2021/07/07 07:40:48;;;;;;;;;;;30.40;80.00;;;;;;1859096;77;20443;-77
2021/07/07 07:43:20;;;;;;;;;;;30.40;80.20;;;;;;1891313;74;20147;-78
2021/07/07 07:45:50;;;;;;;;;;;30.50;79.30;;;;;;1865202;76;20156;-77
2021/07/07 07:48:20;;;;;;;;;;;30.50;77.70;;;;;;1863026;77;20222;-79
2021/07/07 07:50:50;;;;;;;;;;;30.60;78.20;;;;;;1856082;77;20262;-78
2021/07/07 07:53:20;;;;;;;;;;;30.60;77.30;;;;;;1888600;74;20118;-78
2021/07/07 07:55:50;;;;;;;;;;;30.60;77.70;;;;;;1870955;77;20256;-77
2021/07/07 07:58:21;;;;;;;;;;;30.70;78.10;;;;;;1885086;75;20226;-79
2021/07/07 08:00:51;;;;;;;;;;;30.70;77.90;;;;;;1904658;74;20576;-78
2021/07/07 08:03:23;;;;;;;;;;;30.80;78.00;;;;;;1858053;77;20182;-78
2021/07/07 08:05:53;;;;;;;;;;;30.90;78.30;;;;;;1856458;77;20438;-78
2021/07/07 08:08:22;;;;;;;;;;;30.90;79.50;;;;;;1862089;76;20175;-78
2021/07/07 08:10:53;;;;;;;;;;;31.00;80.00;;;;;;1858419;76;20215;-78
2021/07/07 08:13:22;;;;;;;;;;;31.10;80.20;;;;;;1857907;76;20203;-79
2021/07/07 08:15:52;;;;;;;;;;;31.10;81.30;;;;;;1860981;77;20172;-80
2021/07/07 08:18:28;;;;;;;;;;;31.20;81.40;;;;;;1878938;76;20207;-78
2021/07/07 08:20:58;;;;;;;;;;;31.20;81.00;;;;;;1874939;76;20196;-79
2021/07/07 08:23:28;;;;;;;;;;;31.20;81.40;;;;;;1877990;76;20163;-79
2021/07/07 08:25:58;;;;;;;;;;;31.20;82.10;;;;;;1881632;76;20244;-78
2021/07/07 08:28:28;;;;;;;;;;;31.30;82.20;;;;;;1850932;77;20208;-78
2021/07/07 08:30:58;;;;;;;;;;;31.40;82.40;;;;;;1878829;75;20219;-78
2021/07/07 08:33:28;;;;;;;;;;;31.40;82.30;;;;;;1881342;76;20185;-80
2021/07/07 08:35:58;;;;;;;;;;;31.40;82.40;;;;;;1862982;77;20502;-78
2021/07/07 08:38:28;;;;;;;;;;;31.50;82.40;;;;;;1865697;77;20220;-79
2021/07/07 08:40:58;;;;;;;;;;;31.60;82.50;;;;;;1869582;75;20479;-79
2021/07/07 08:43:28;;;;;;;;;;;31.60;82.40;;;;;;1866677;75;20243;-79
2021/07/07 08:45:59;;;;;;;;;;;31.60;82.50;;;;;;1844577;75;20235;-79
2021/07/07 08:48:29;;;;;;;;;;;31.70;82.40;;;;;;1876649;76;20196;-80
2021/07/07 08:50:59;;;;;;;;;;;31.70;82.40;;;;;;1857782;77;20266;-80
2021/07/07 08:53:29;;;;;;;;;;;31.70;82.70;;;;;;1862223;77;20211;-80
2021/07/07 08:55:59;;;;;;;;;;;31.70;82.70;;;;;;1857305;77;20160;-78
2021/07/07 08:58:29;;;;;;;;;;;31.70;82.50;;;;;;1881024;75;20660;-79
2021/07/07 09:00:59;;;;;;;;;;;31.70;82.50;;;;;;1883353;75;20515;-78
2021/07/07 09:03:29;;;;;;;;;;;31.70;82.70;;;;;;1887668;75;20204;-79
2021/07/07 09:06:03;;;;;;;;;;;31.70;82.80;;;;;;1864407;77;20176;-78
2021/07/07 09:08:35;;;;;;;;;;;31.70;83.10;;;;;;1877324;76;20138;-78
2021/07/07 09:11:05;;;;;;;;;;;31.70;82.90;;;;;;1851019;77;20207;-79
2021/07/07 09:13:35;;;;;;;;;;;31.70;82.70;;;;;;1858294;76;20456;-78
2021/07/07 09:16:06;;;;;;;;;;;31.70;82.70;;;;;;1894598;75;20199;-78
2021/07/07 09:18:36;;;;;;;;;;;31.70;82.80;;;;;;1890501;74;20141;-79
2021/07/07 09:21:07;;;;;;;;;;;31.60;82.80;;;;;;1894886;74;20142;-78
2021/07/07 09:23:39;;;;;;;;;;;31.70;83.00;;;;;;1837574;76;20189;-79
2021/07/07 09:26:08;;;;;;;;;;;31.70;83.00;;;;;;1906325;74;20451;-78
2021/07/07 09:28:40;;;;;;;;;;;31.60;83.20;;;;;;1896673;74;20209;-78
2021/07/07 09:31:11;;;;;;;;;;;31.60;82.90;;;;;;1889273;74;20199;-79
2021/07/07 09:33:43;;;;;;;;;;;31.60;82.80;;;;;;1857219;76;20602;-80
2021/07/07 09:36:13;;;;;;;;;;;31.60;82.80;;;;;;1862409;76;20442;-80
2021/07/07 09:38:43;;;;;;;;;;;31.60;82.50;;;;;;1858583;77;20247;-79
2021/07/07 09:41:14;;;;;;;;;;;31.60;82.60;;;;;;1891977;76;20185;-79
2021/07/07 09:43:47;;;;;;;;;;;31.60;82.70;;;;;;1868999;76;20260;-78
2021/07/07 09:46:18;;;;;;;;;;;31.50;82.80;;;;;;1897809;74;20153;-79
2021/07/07 09:48:49;;;;;;;;;;;31.60;82.80;;;;;;1901727;74;20632;-79
2021/07/07 09:51:19;;;;;;;;;;;31.60;83.00;;;;;;1866792;76;20207;-80
2021/07/07 09:53:50;;;;;;;;;;;31.60;83.10;;;;;;1875427;76;20263;-81
2021/07/07 09:56:52;;;;;;;;;;;31.60;83.20;;;;;;1853122;77;20207;-82
2021/07/07 10:01:16;;;;;;;;;;;31.60;83.40;;;;;;1844723;77;20191;-81
2021/07/07 10:02:37;;;;;;;;;;;31.60;83.20;;;;;;1688117;84;20224;-82
2021/07/07 10:05:18;;;;;;;;;;;31.60;83.30;;;;;;1694161;84;20256;-80
2021/07/07 10:07:50;;;;;;;;;;;31.50;83.40;;;;;;1698324;83;20232;-80
2021/07/07 10:10:23;;;;;;;;;;;31.50;82.50;;;;;;1701138;84;20583;-79
2021/07/07 10:12:53;;;;;;;;;;;31.50;83.40;;;;;;1704433;84;20245;-77
2021/07/07 10:15:23;;;;;;;;;;;31.50;83.20;;;;;;1704120;84;20380;-78
2021/07/07 10:17:53;;;;;;;;;;;31.50;81.30;;;;;;1703439;84;20317;-79
2021/07/07 10:20:23;;;;;;;;;;;31.40;81.70;;;;;;1700350;84;20238;-79
2021/07/07 10:22:53;;;;;;;;;;;31.40;81.90;;;;;;1700773;84;20240;-79
2021/07/07 10:25:25;;;;;;;;;;;31.40;80.10;;;;;;1700641;84;20218;-79
2021/07/07 10:27:56;;;;;;;;;;;31.40;79.10;;;;;;1700726;84;20886;-78
2021/07/07 10:30:28;;;;;;;;;;;31.30;81.20;;;;;;1700488;83;20237;-79
2021/07/07 10:32:59;;;;;;;;;;;31.30;79.40;;;;;;1732035;79;20271;-79
2021/07/07 10:35:28;;;;;;;;;;;31.30;80.60;;;;;;1787688;79;20271;-78
2021/07/07 10:37:58;;;;;;;;;;;31.20;81.00;;;;;;1788646;77;20281;-78
2021/07/07 10:40:30;;;;;;;;;;;31.20;81.40;;;;;;1894432;75;20186;-79
2021/07/07 10:43:00;;;;;;;;;;;31.20;81.60;;;;;;1880405;75;20160;-78
2021/07/07 10:45:32;;;;;;;;;;;31.20;81.60;;;;;;1900389;75;20162;-79
2021/07/07 10:48:03;;;;;;;;;;;31.20;81.30;;;;;;1891495;76;20238;-80
2021/07/07 10:50:37;;;;;;;;;;;31.20;81.40;;;;;;1877498;75;20478;-78
2021/07/07 10:53:06;;;;;;;;;;;31.20;81.70;;;;;;1888496;76;20205;-78
2021/07/07 10:55:40;;;;;;;;;;;31.20;81.90;;;;;;1850010;77;20189;-78
2021/07/07 10:58:11;;;;;;;;;;;31.20;82.20;;;;;;1865810;77;20233;-79
2021/07/07 11:00:41;;;;;;;;;;;31.10;82.50;;;;;;1830104;77;20250;-78
2021/07/07 11:03:13;;;;;;;;;;;31.10;82.80;;;;;;1867848;74;20226;-79
2021/07/07 11:05:50;;;;;;;;;;;31.10;82.80;;;;;;1872217;76;20251;-78
2021/07/07 11:08:17;;;;;;;;;;;31.10;83.40;;;;;;1847709;77;20130;-78
2021/07/07 11:10:48;;;;;;;;;;;31.00;83.60;;;;;;1884620;76;20578;-78
2021/07/07 11:13:19;;;;;;;;;;;31.00;83.60;;;;;;1902807;74;20168;-79
2021/07/07 11:15:50;;;;;;;;;;;31.00;84.80;;;;;;1872294;74;20239;-78
2021/07/07 11:18:22;;;;;;;;;;;30.90;84.60;;;;;;1892511;76;20155;-79
2021/07/07 11:20:57;;;;;;;;;;;30.90;84.40;;;;;;1845104;78;20510;-78
2021/07/07 11:23:24;;;;;;;;;;;30.90;85.10;;;;;;1837132;78;20153;-78
2021/07/07 11:25:59;;;;;;;;;;;30.90;86.00;;;;;;1845807;78;20176;-79
2021/07/07 11:28:32;;;;;;;;;;;30.90;86.00;;;;;;1888975;75;20189;-80
2021/07/07 11:31:01;;;;;;;;;;;30.90;86.90;;;;;;1907235;75;20166;-80
2021/07/07 11:33:35;;;;;;;;;;;30.80;87.50;;;;;;1879342;75;20164;-80
2021/07/07 11:36:14;;;;;;;;;;;30.70;87.60;;;;;;1879631;76;20664;-79
2021/07/07 11:38:37;;;;;;;;;;;30.60;88.60;;;;;;1775131;76;20604;-79
2021/07/07 11:41:10;;;;;;;;;;;30.60;89.10;;;;;;1870178;75;20490;-78
2021/07/07 11:43:41;;;;;;;;;;;30.40;89.60;;;;;;1849639;76;20132;-78
2021/07/07 11:46:13;;;;;;;;;;;30.40;89.70;;;;;;1884073;75;20164;-78
2021/07/07 11:48:47;;;;;;;;;;;30.30;90.20;;;;;;1854910;76;20119;-79
2021/07/07 11:51:32;;;;;;;;;;;30.20;90.10;;;;;;1884693;75;20239;-77
2021/07/07 11:53:57;;;;;;;;;;;30.20;88.90;;;;;;1887514;75;20538;-78
2021/07/07 11:56:30;;;;;;;;;;;30.10;89.20;;;;;;1877006;75;20178;-79
2021/07/07 11:59:04;;;;;;;;;;;30.00;88.30;;;;;;1871633;75;20144;-78
2021/07/07 12:01:36;;;;;;;;;;;29.90;88.20;;;;;;1850404;75;20578;-78
2021/07/07 12:04:20;;;;;;;;;;;29.90;88.30;;;;;;1879666;74;20193;-78
2021/07/07 12:06:52;;;;;;;;;;;29.80;88.50;;;;;;1850765;77;20164;-77
2021/07/07 12:09:22;;;;;;;;;;;29.60;89.20;;;;;;1844862;76;20220;-78
2021/07/07 12:11:53;;;;;;;;;;;29.60;89.50;;;;;;1863954;75;20219;-76
2021/07/07 12:14:24;;;;;;;;;;;29.50;89.90;;;;;;1860506;77;20177;-79
2021/07/07 12:18:55;;;;;;;;;;;29.40;89.60;;;;;;1851283;77;20129;-78
2021/07/07 12:20:09;;;;;;;;;;;29.40;89.00;;;;;;1834099;76;20602;-78
2021/07/07 12:22:41;;;;;;;;;;;29.30;87.90;;;;;;1881770;76;20203;-78
2021/07/07 12:25:09;;;;;;;;;;;29.20;88.30;;;;;;1894864;74;20204;-78
2021/07/07 12:27:41;;;;;;;;;;;29.10;88.60;;;;;;1898259;74;20184;-77
2021/07/07 12:30:11;;;;;;;;;;;29.00;88.90;;;;;;1904063;74;20216;-78
2021/07/07 12:32:42;;;;;;;;;;;28.90;89.20;;;;;;1892905;76;20188;-78
2021/07/07 12:35:12;;;;;;;;;;;28.90;89.40;;;;;;1877229;75;20241;-78
2021/07/07 12:37:42;;;;;;;;;;;28.90;89.40;;;;;;1895677;74;20118;-79
2021/07/07 12:40:16;;;;;;;;;;;28.90;89.70;;;;;;1898023;74;20120;-79
2021/07/07 12:42:44;;;;;;;;;;;28.90;89.80;;;;;;1868487;75;20163;-80
2021/07/07 12:45:17;;;;;;;;;;;28.90;90.00;;;;;;1886526;74;20216;-81
2021/07/07 12:47:57;;;;;;;;;;;29.00;90.40;;;;;;1860933;77;20227;-79
2021/07/07 12:50:28;;;;;;;;;;;29.00;91.00;;;;;;1889312;74;20272;-80
2021/07/07 12:53:01;;;;;;;;;;;28.90;91.20;;;;;;1903293;74;20222;-81
2021/07/07 12:55:31;;;;;;;;;;;28.80;91.30;;;;;;1868985;76;20187;-80
2021/07/07 12:58:04;;;;;;;;;;;28.70;91.40;;;;;;1893528;76;20198;-79
2021/07/07 13:00:36;;;;;;;;;;;28.60;91.60;;;;;;1890563;76;20218;-81
2021/07/07 13:03:10;;;;;;;;;;;28.60;91.60;;;;;;1896109;74;20179;-80
2021/07/07 13:05:51;;;;;;;;;;;28.50;91.90;;;;;;1892676;74;20245;-80
2021/07/07 13:08:15;;;;;;;;;;;28.50;91.90;;;;;;1894364;75;20189;-79
2021/07/07 13:10:48;;;;;;;;;;;28.50;91.70;;;;;;1896647;74;20212;-79
2021/07/07 13:13:19;;;;;;;;;;;28.40;92.30;;;;;;1869222;76;20156;-80
2021/07/07 13:15:50;;;;;;;;;;;28.40;92.20;;;;;;1895733;76;20189;-81
2021/07/07 13:18:20;;;;;;;;;;;28.30;92.80;;;;;;1881464;75;20187;-79
2021/07/07 13:20:55;;;;;;;;;;;28.30;92.60;;;;;;1873224;75;20156;-81
2021/07/07 13:23:28;;;;;;;;;;;28.10;93.10;;;;;;1864536;77;20176;-80
2021/07/07 13:26:01;;;;;;;;;;;28.00;93.60;;;;;;1869253;76;20522;-81
2021/07/07 13:28:32;;;;;;;;;;;28.00;94.00;;;;;;1865793;75;20299;-79
2021/07/07 13:31:03;;;;;;;;;;;27.90;93.90;;;;;;1864816;75;20738;-80
2021/07/07 13:33:33;;;;;;;;;;;27.90;94.10;;;;;;1867145;76;20188;-81
2021/07/07 13:36:05;;;;;;;;;;;27.70;94.00;;;;;;1868802;77;20188;-81
2021/07/07 13:38:34;;;;;;;;;;;27.60;94.10;;;;;;1876679;75;20281;-82
2021/07/07 13:41:04;;;;;;;;;;;27.50;94.40;;;;;;1852411;76;20224;-80
2021/07/07 13:43:37;;;;;;;;;;;27.40;94.40;;;;;;1871698;76;20199;-82
2021/07/07 13:46:07;;;;;;;;;;;27.30;94.60;;;;;;1878613;76;20214;-81
2021/07/07 13:48:37;;;;;;;;;;;27.30;94.60;;;;;;1874916;76;20395;-81
2021/07/07 13:51:07;;;;;;;;;;;27.20;94.40;;;;;;1869650;75;20282;-81
2021/07/07 13:53:36;;;;;;;;;;;27.20;94.20;;;;;;1875214;75;20207;-80
2021/07/07 13:56:06;;;;;;;;;;;27.10;94.50;;;;;;1874706;76;20195;-78
2021/07/07 13:58:40;;;;;;;;;;;27.00;95.10;;;;;;1876772;75;20268;-88
2021/07/07 14:01:17;;;;;;;;;;;27.00;95.40;;;;;;1882046;75;20184;-88
2021/07/07 14:03:53;;;;;;;;;;;26.90;94.90;;;;;;1875247;75;20173;-88
2021/07/07 14:06:23;;;;;;;;;;;26.80;95.30;;;;;;1879938;76;20175;-88
2021/07/07 14:08:55;;;;;;;;;;;26.90;96.40;;;;;;1885474;75;20525;-88
2021/07/07 14:11:27;;;;;;;;;;;26.80;96.40;;;;;;1891464;75;20179;-89
2021/07/07 14:13:57;;;;;;;;;;;26.70;96.00;;;;;;1871235;76;20128;-89
2021/07/07 14:16:37;;;;;;;;;;;26.50;97.10;;;;;;1878973;75;20183;-87
2021/07/07 14:19:07;;;;;;;;;;;26.40;97.10;;;;;;1874157;76;20335;-88
2021/07/07 14:21:37;;;;;;;;;;;26.40;97.00;;;;;;1871726;76;20172;-88
2021/07/07 14:24:07;;;;;;;;;;;26.40;97.10;;;;;;1874183;76;20191;-87
2021/07/07 14:26:40;;;;;;;;;;;26.40;96.90;;;;;;1866307;76;20195;-88
2021/07/07 14:29:13;;;;;;;;;;;26.40;97.20;;;;;;1867106;76;20591;-88
2021/07/07 14:31:47;;;;;;;;;;;26.40;97.30;;;;;;1869419;76;20120;-89
2021/07/07 14:34:23;;;;;;;;;;;26.50;97.00;;;;;;1869777;76;20598;-86
2021/07/07 14:36:54;;;;;;;;;;;26.50;96.80;;;;;;1871847;76;20229;-88
2021/07/07 14:39:30;;;;;;;;;;;26.60;97.10;;;;;;1870216;76;20160;-89
2021/07/07 14:41:58;;;;;;;;;;;26.50;97.20;;;;;;1826979;78;20156;-87
2021/07/07 14:44:28;;;;;;;;;;;26.50;97.40;;;;;;1814297;78;20221;-89
2021/07/07 14:46:58;;;;;;;;;;;26.40;97.70;;;;;;1830181;78;20199;-88
2021/07/07 14:49:28;;;;;;;;;;;26.30;97.70;;;;;;1832447;78;20792;-90
2021/07/07 14:51:57;;;;;;;;;;;26.30;97.70;;;;;;1831579;78;20227;-89
2021/07/07 14:54:27;;;;;;;;;;;26.30;98.20;;;;;;1831056;77;20246;-89
2021/07/07 14:57:02;;;;;;;;;;;26.40;98.00;;;;;;1822333;77;20152;-88
2021/07/07 14:59:38;;;;;;;;;;;26.40;98.10;;;;;;1834039;77;20723;-88
2021/07/07 15:02:09;;;;;;;;;;;26.40;98.40;;;;;;1777388;79;20177;-88
2021/07/07 15:06:23;;;;;;;;;;;26.50;98.60;;;;;;1744245;78;20237;-87
2021/07/07 15:07:25;;;;;;;;;;;26.40;98.70;;;;;;1743605;76;20231;-89
2021/07/07 15:09:55;;;;;;;;;;;26.40;98.90;;;;;;1775676;74;20211;-89
2021/07/07 15:12:31;;;;;;;;;;;26.40;99.40;;;;;;1763526;77;20236;-88
2021/07/07 15:15:03;;;;;;;;;;;26.40;98.90;;;;;;1764078;80;20340;-89
2021/07/07 15:17:36;;;;;;;;;;;26.40;98.70;;;;;;1760819;81;20192;-88
2021/07/07 15:20:11;;;;;;;;;;;26.40;97.10;;;;;;1770025;77;20231;-88
2021/07/07 15:22:45;;;;;;;;;;;26.40;97.00;;;;;;1808514;79;20178;-88
2021/07/07 15:25:14;;;;;;;;;;;26.40;98.10;;;;;;1798949;80;20183;-88
2021/07/07 15:28:08;;;;;;;;;;;26.50;98.90;;;;;;1817696;78;20153;-88
2021/07/07 15:30:31;;;;;;;;;;;26.40;99.30;;;;;;1795255;78;20204;-88
2021/07/07 15:36:48;;;;;;;;;;;26.20;99.90;;;;;;1794295;79;20273;-88
2021/07/07 15:39:10;;;;;;;;;;;26.10;99.90;;;;;;1779971;80;20219;-89
2021/07/07 15:41:45;;;;;;;;;;;25.90;99.90;;;;;;1758182;81;20293;-88
2021/07/07 15:44:38;;;;;;;;;;;25.90;99.90;;;;;;1790313;78;20227;-88
2021/07/07 15:50:18;;;;;;;;;;;25.70;99.90;;;;;;1685666;83;20234;-89
2021/07/07 15:56:00;;;;;;;;;;;25.70;99.90;;;;;;1933416;72;20146;-88